METAR Data
IDs: Format: Raw Decoded Include TAF

Data at: 1018 UTC 13 Aug 2022

KBIV 130953Z AUTO 00000KT 10SM FEW043 OVC100 16/13 A3017 RMK AO2 SLP215 T01610133